X  Cerrar Datos meteorológicos de aviación METAR     EHKD De Kooy Airport
Temperatura
57°F Temperatura
54°F Punto de rocío
88% Humedad



Viento
6 MPH
10 KM/H
3 M/S
5 NUDO



260°
O
Condiciones actuales

Nublado Nublado
Presión 1004.06 (hPa) - 29.65 (inHg)
Visibilidad 6 (milla) - 9.7 (km)
Aeropuerto
Código de aeropuerto EHKD

localidad: De Kooy Airport
Distancia: 34 (mi)

Metar:
EHKD 300555Z AUTO 26005KT 230V290 9999 OVC088 14/12 Q1004 BLU TEMPO FEW008 SCT012

Hora: 30-05-2024 07:55 CEST